sensor_id;sensor_type;location;lat;lon;timestamp;pressure;altitude;pressure_sealevel;temperature;humidity
28606;BME280;46498;49.968;7.754;2024-01-30T00:00:29;-18373.00;;;3.01;100.00
28606;BME280;46498;49.968;7.754;2024-01-30T00:05:30;-18372.00;;;2.96;100.00
28606;BME280;46498;49.968;7.754;2024-01-30T00:10:31;-18372.00;;;2.96;100.00
28606;BME280;46498;49.968;7.754;2024-01-30T00:15:32;-18377.00;;;3.12;100.00
28606;BME280;46498;49.968;7.754;2024-01-30T00:20:33;-18379.00;;;3.20;100.00
28606;BME280;46498;49.968;7.754;2024-01-30T00:25:34;-18378.00;;;3.17;100.00
28606;BME280;46498;49.968;7.754;2024-01-30T00:30:35;-18377.00;;;3.12;100.00
28606;BME280;46498;49.968;7.754;2024-01-30T00:35:36;-18371.00;;;2.95;100.00
28606;BME280;46498;49.968;7.754;2024-01-30T00:40:37;-18371.00;;;2.93;100.00
28606;BME280;46498;49.968;7.754;2024-01-30T00:45:38;-18376.00;;;3.11;100.00
28606;BME280;46498;49.968;7.754;2024-01-30T00:50:38;-18376.00;;;3.09;100.00
28606;BME280;46498;49.968;7.754;2024-01-30T00:55:39;-18377.00;;;3.13;100.00
28606;BME280;46498;49.968;7.754;2024-01-30T01:00:40;-18379.00;;;3.18;100.00
28606;BME280;46498;49.968;7.754;2024-01-30T01:05:41;-18379.00;;;3.18;100.00
28606;BME280;46498;49.968;7.754;2024-01-30T01:10:42;-18379.00;;;3.19;100.00
28606;BME280;46498;49.968;7.754;2024-01-30T01:15:43;-18381.00;;;3.25;100.00
28606;BME280;46498;49.968;7.754;2024-01-30T01:20:44;-18380.00;;;3.23;100.00
28606;BME280;46498;49.968;7.754;2024-01-30T01:25:44;-18382.00;;;3.28;100.00
28606;BME280;46498;49.968;7.754;2024-01-30T01:30:45;-18382.00;;;3.29;100.00
28606;BME280;46498;49.968;7.754;2024-01-30T01:35:47;-18378.00;;;3.15;100.00
28606;BME280;46498;49.968;7.754;2024-01-30T01:40:48;-18369.00;;;2.88;100.00
28606;BME280;46498;49.968;7.754;2024-01-30T01:45:49;-18368.00;;;2.83;100.00
28606;BME280;46498;49.968;7.754;2024-01-30T01:50:50;-18372.00;;;2.97;100.00
28606;BME280;46498;49.968;7.754;2024-01-30T01:55:53;-18370.00;;;2.90;100.00
28606;BME280;46498;49.968;7.754;2024-01-30T02:00:56;-18378.00;;;3.14;100.00
28606;BME280;46498;49.968;7.754;2024-01-30T02:05:58;-18376.00;;;3.11;100.00
28606;BME280;46498;49.968;7.754;2024-01-30T02:10:59;-18371.00;;;2.93;100.00
28606;BME280;46498;49.968;7.754;2024-01-30T02:16:00;-18372.00;;;2.98;100.00
28606;BME280;46498;49.968;7.754;2024-01-30T02:21:04;-18372.00;;;2.98;100.00
28606;BME280;46498;49.968;7.754;2024-01-30T02:26:05;-18369.00;;;2.88;100.00
28606;BME280;46498;49.968;7.754;2024-01-30T02:31:06;-18371.00;;;2.93;100.00
28606;BME280;46498;49.968;7.754;2024-01-30T02:36:07;-18372.00;;;2.97;100.00
28606;BME280;46498;49.968;7.754;2024-01-30T02:41:08;-18369.00;;;2.87;100.00
28606;BME280;46498;49.968;7.754;2024-01-30T02:46:09;-18372.00;;;2.98;100.00
28606;BME280;46498;49.968;7.754;2024-01-30T02:51:11;-18373.00;;;2.99;100.00
28606;BME280;46498;49.968;7.754;2024-01-30T02:56:12;-18370.00;;;2.90;100.00
28606;BME280;46498;49.968;7.754;2024-01-30T03:01:14;-18368.00;;;2.85;100.00
28606;BME280;46498;49.968;7.754;2024-01-30T03:06:15;-18370.00;;;2.91;100.00
28606;BME280;46498;49.968;7.754;2024-01-30T03:11:18;-18371.00;;;2.94;100.00
28606;BME280;46498;49.968;7.754;2024-01-30T03:16:19;-18368.00;;;2.84;100.00
28606;BME280;46498;49.968;7.754;2024-01-30T03:21:20;-18365.00;;;2.76;100.00
28606;BME280;46498;49.968;7.754;2024-01-30T03:26:20;-18369.00;;;2.88;100.00
28606;BME280;46498;49.968;7.754;2024-01-30T03:31:21;-18369.00;;;2.88;100.00
28606;BME280;46498;49.968;7.754;2024-01-30T03:36:22;-18372.00;;;2.98;100.00
28606;BME280;46498;49.968;7.754;2024-01-30T03:41:23;-18375.00;;;3.05;100.00
28606;BME280;46498;49.968;7.754;2024-01-30T03:46:24;-18374.00;;;3.03;100.00
28606;BME280;46498;49.968;7.754;2024-01-30T03:51:25;-18374.00;;;3.04;100.00
28606;BME280;46498;49.968;7.754;2024-01-30T03:56:26;-18373.00;;;3.01;100.00
28606;BME280;46498;49.968;7.754;2024-01-30T04:01:27;-18374.00;;;3.01;100.00
28606;BME280;46498;49.968;7.754;2024-01-30T04:06:28;-18374.00;;;3.03;100.00
28606;BME280;46498;49.968;7.754;2024-01-30T04:11:29;-18372.00;;;2.97;100.00
28606;BME280;46498;49.968;7.754;2024-01-30T04:16:30;-18369.00;;;2.88;100.00
28606;BME280;46498;49.968;7.754;2024-01-30T04:21:31;-18368.00;;;2.84;100.00
28606;BME280;46498;49.968;7.754;2024-01-30T04:26:32;-18367.00;;;2.81;100.00
28606;BME280;46498;49.968;7.754;2024-01-30T04:31:33;-18368.00;;;2.85;100.00
28606;BME280;46498;49.968;7.754;2024-01-30T04:36:33;-18365.00;;;2.74;100.00
28606;BME280;46498;49.968;7.754;2024-01-30T04:41:34;-18364.00;;;2.72;100.00
28606;BME280;46498;49.968;7.754;2024-01-30T04:46:35;-18366.00;;;2.78;100.00
28606;BME280;46498;49.968;7.754;2024-01-30T04:51:36;-18366.00;;;2.79;100.00
28606;BME280;46498;49.968;7.754;2024-01-30T04:56:37;-18368.00;;;2.84;100.00
28606;BME280;46498;49.968;7.754;2024-01-30T05:01:38;-18369.00;;;2.86;100.00
28606;BME280;46498;49.968;7.754;2024-01-30T05:06:39;-18370.00;;;2.89;100.00
28606;BME280;46498;49.968;7.754;2024-01-30T05:11:40;-18370.00;;;2.91;100.00
28606;BME280;46498;49.968;7.754;2024-01-30T05:16:41;-18369.00;;;2.88;100.00
28606;BME280;46498;49.968;7.754;2024-01-30T05:21:47;-18365.00;;;2.76;100.00
28606;BME280;46498;49.968;7.754;2024-01-30T05:26:48;-18366.00;;;2.78;100.00
28606;BME280;46498;49.968;7.754;2024-01-30T05:31:49;-18364.00;;;2.70;100.00
28606;BME280;46498;49.968;7.754;2024-01-30T05:36:49;-18364.00;;;2.72;100.00
28606;BME280;46498;49.968;7.754;2024-01-30T05:41:50;-18364.00;;;2.71;100.00
28606;BME280;46498;49.968;7.754;2024-01-30T05:46:51;-18363.00;;;2.70;100.00
28606;BME280;46498;49.968;7.754;2024-01-30T05:51:52;-18365.00;;;2.75;100.00
28606;BME280;46498;49.968;7.754;2024-01-30T05:56:53;-18368.00;;;2.85;100.00
28606;BME280;46498;49.968;7.754;2024-01-30T06:01:54;-18368.00;;;2.84;100.00
28606;BME280;46498;49.968;7.754;2024-01-30T06:06:55;-18367.00;;;2.80;100.00
28606;BME280;46498;49.968;7.754;2024-01-30T06:11:56;-18365.00;;;2.75;100.00
28606;BME280;46498;49.968;7.754;2024-01-30T06:16:57;-18362.00;;;2.64;100.00
28606;BME280;46498;49.968;7.754;2024-01-30T06:21:58;-18360.00;;;2.59;100.00
28606;BME280;46498;49.968;7.754;2024-01-30T06:26:59;-18360.00;;;2.58;100.00
28606;BME280;46498;49.968;7.754;2024-01-30T06:31:59;-18365.00;;;2.75;100.00
28606;BME280;46498;49.968;7.754;2024-01-30T06:37:01;-18366.00;;;2.79;100.00
28606;BME280;46498;49.968;7.754;2024-01-30T06:42:02;-18363.00;;;2.67;100.00
28606;BME280;46498;49.968;7.754;2024-01-30T06:47:04;-18359.00;;;2.55;100.00
28606;BME280;46498;49.968;7.754;2024-01-30T06:52:05;-18360.00;;;2.58;100.00
28606;BME280;46498;49.968;7.754;2024-01-30T06:57:06;-18362.00;;;2.65;100.00
28606;BME280;46498;49.968;7.754;2024-01-30T07:02:12;-18364.00;;;2.72;100.00
28606;BME280;46498;49.968;7.754;2024-01-30T07:07:13;-18364.00;;;2.71;100.00
28606;BME280;46498;49.968;7.754;2024-01-30T07:12:15;-18362.00;;;2.65;100.00
28606;BME280;46498;49.968;7.754;2024-01-30T07:17:16;-18363.00;;;2.69;100.00
28606;BME280;46498;49.968;7.754;2024-01-30T07:22:17;-18363.00;;;2.69;100.00
28606;BME280;46498;49.968;7.754;2024-01-30T07:27:18;-18363.00;;;2.70;100.00
28606;BME280;46498;49.968;7.754;2024-01-30T07:32:19;-18365.00;;;2.74;100.00
28606;BME280;46498;49.968;7.754;2024-01-30T07:37:20;-18368.00;;;2.84;100.00
28606;BME280;46498;49.968;7.754;2024-01-30T07:42:22;-18370.00;;;2.92;100.00
28606;BME280;46498;49.968;7.754;2024-01-30T07:47:23;-18375.00;;;3.07;100.00
28606;BME280;46498;49.968;7.754;2024-01-30T07:52:23;-18381.00;;;3.26;100.00
28606;BME280;46498;49.968;7.754;2024-01-30T07:57:24;-18397.00;;;3.76;100.00
28606;BME280;46498;49.968;7.754;2024-01-30T08:02:25;-18402.00;;;3.90;100.00
28606;BME280;46498;49.968;7.754;2024-01-30T08:07:26;-18408.00;;;4.10;100.00
28606;BME280;46498;49.968;7.754;2024-01-30T08:12:30;-18415.00;;;4.30;100.00
28606;BME280;46498;49.968;7.754;2024-01-30T08:17:31;-18416.00;;;4.35;100.00
28606;BME280;46498;49.968;7.754;2024-01-30T08:22:32;-18416.00;;;4.34;100.00
28606;BME280;46498;49.968;7.754;2024-01-30T08:27:33;-18415.00;;;4.30;100.00
28606;BME280;46498;49.968;7.754;2024-01-30T08:32:35;-18422.00;;;4.54;100.00
28606;BME280;46498;49.968;7.754;2024-01-30T08:37:36;-18419.00;;;4.44;100.00
28606;BME280;46498;49.968;7.754;2024-01-30T08:42:38;-18425.00;;;4.62;100.00
28606;BME280;46498;49.968;7.754;2024-01-30T08:47:40;-18425.00;;;4.64;100.00
28606;BME280;46498;49.968;7.754;2024-01-30T08:52:42;-18432.00;;;4.83;100.00
28606;BME280;46498;49.968;7.754;2024-01-30T08:57:42;-18434.00;;;4.92;100.00
28606;BME280;46498;49.968;7.754;2024-01-30T09:02:44;-18443.00;;;5.18;100.00
28606;BME280;46498;49.968;7.754;2024-01-30T09:07:45;-18443.00;;;5.18;100.00
28606;BME280;46498;49.968;7.754;2024-01-30T09:12:47;-18441.00;;;5.12;100.00
28606;BME280;46498;49.968;7.754;2024-01-30T09:17:48;-18440.00;;;5.10;100.00
28606;BME280;46498;49.968;7.754;2024-01-30T09:22:49;-18442.00;;;5.15;100.00
28606;BME280;46498;49.968;7.754;2024-01-30T09:27:50;-18445.00;;;5.26;100.00
28606;BME280;46498;49.968;7.754;2024-01-30T09:32:51;-18450.00;;;5.40;100.00
28606;BME280;46498;49.968;7.754;2024-01-30T09:37:52;-18447.00;;;5.32;100.00
28606;BME280;46498;49.968;7.754;2024-01-30T09:42:54;-18439.00;;;5.05;100.00
28606;BME280;46498;49.968;7.754;2024-01-30T09:47:55;-18445.00;;;5.26;100.00
28606;BME280;46498;49.968;7.754;2024-01-30T09:52:57;-18445.00;;;5.25;100.00
28606;BME280;46498;49.968;7.754;2024-01-30T09:57:59;-18448.00;;;5.33;100.00
28606;BME280;46498;49.968;7.754;2024-01-30T10:03:00;-18454.00;;;5.53;100.00
28606;BME280;46498;49.968;7.754;2024-01-30T10:08:05;-18457.00;;;5.64;100.00
28606;BME280;46498;49.968;7.754;2024-01-30T10:13:07;-18465.00;;;5.88;100.00
28606;BME280;46498;49.968;7.754;2024-01-30T10:18:08;-18475.00;;;6.20;100.00
28606;BME280;46498;49.968;7.754;2024-01-30T10:23:11;-18476.00;;;6.22;100.00
28606;BME280;46498;49.968;7.754;2024-01-30T10:28:12;-18473.00;;;6.15;100.00
28606;BME280;46498;49.968;7.754;2024-01-30T10:33:13;-18478.00;;;6.29;100.00
28606;BME280;46498;49.968;7.754;2024-01-30T10:38:15;-18487.00;;;6.57;100.00
28606;BME280;46498;49.968;7.754;2024-01-30T10:43:21;-18492.00;;;6.74;100.00
28606;BME280;46498;49.968;7.754;2024-01-30T10:48:28;-18503.00;;;7.08;100.00
28606;BME280;46498;49.968;7.754;2024-01-30T10:53:31;-18505.00;;;7.13;100.00
28606;BME280;46498;49.968;7.754;2024-01-30T10:58:33;-18506.00;;;7.18;100.00
28606;BME280;46498;49.968;7.754;2024-01-30T11:03:34;-18498.00;;;6.91;100.00
28606;BME280;46498;49.968;7.754;2024-01-30T11:08:36;-18495.00;;;6.81;100.00
28606;BME280;46498;49.968;7.754;2024-01-30T11:13:37;-18508.00;;;7.22;100.00
28606;BME280;46498;49.968;7.754;2024-01-30T11:18:38;-18520.00;;;7.61;100.00
28606;BME280;46498;49.968;7.754;2024-01-30T11:23:39;-18523.00;;;7.71;100.00
28606;BME280;46498;49.968;7.754;2024-01-30T11:28:40;-18525.00;;;7.76;100.00
28606;BME280;46498;49.968;7.754;2024-01-30T11:33:41;-18533.00;;;8.00;100.00
28606;BME280;46498;49.968;7.754;2024-01-30T11:38:42;-18549.00;;;8.52;100.00
28606;BME280;46498;49.968;7.754;2024-01-30T11:43:53;-18559.00;;;8.82;100.00
28606;BME280;46498;49.968;7.754;2024-01-30T11:48:54;-18565.00;;;9.00;100.00
28606;BME280;46498;49.968;7.754;2024-01-30T11:53:55;-18567.00;;;9.09;100.00
28606;BME280;46498;49.968;7.754;2024-01-30T11:58:56;-18562.00;;;8.94;100.00
28606;BME280;46498;49.968;7.754;2024-01-30T12:03:58;-18562.00;;;8.92;100.00
28606;BME280;46498;49.968;7.754;2024-01-30T12:09:01;-18559.00;;;8.82;100.00
28606;BME280;46498;49.968;7.754;2024-01-30T12:14:04;-18560.00;;;8.85;100.00
28606;BME280;46498;49.968;7.754;2024-01-30T12:19:05;-18559.00;;;8.82;100.00
28606;BME280;46498;49.968;7.754;2024-01-30T12:24:06;-18555.00;;;8.72;100.00
28606;BME280;46498;49.968;7.754;2024-01-30T12:29:08;-18554.00;;;8.68;100.00
28606;BME280;46498;49.968;7.754;2024-01-30T12:34:09;-18549.00;;;8.53;100.00
28606;BME280;46498;49.968;7.754;2024-01-30T12:39:14;-18546.00;;;8.43;100.00
28606;BME280;46498;49.968;7.754;2024-01-30T12:44:15;-18542.00;;;8.28;100.00
28606;BME280;46498;49.968;7.754;2024-01-30T12:49:16;-18537.00;;;8.15;100.00
28606;BME280;46498;49.968;7.754;2024-01-30T12:54:18;-18535.00;;;8.07;100.00
28606;BME280;46498;49.968;7.754;2024-01-30T12:59:19;-18536.00;;;8.11;100.00
28606;BME280;46498;49.968;7.754;2024-01-30T13:04:20;-18534.00;;;8.06;100.00
28606;BME280;46498;49.968;7.754;2024-01-30T13:09:23;-18533.00;;;8.01;100.00
28606;BME280;46498;49.968;7.754;2024-01-30T13:14:24;-18538.00;;;8.18;100.00
28606;BME280;46498;49.968;7.754;2024-01-30T13:19:25;-18536.00;;;8.10;100.00
28606;BME280;46498;49.968;7.754;2024-01-30T13:24:26;-18529.00;;;7.88;100.00
28606;BME280;46498;49.968;7.754;2024-01-30T13:29:27;-18535.00;;;8.07;100.00
28606;BME280;46498;49.968;7.754;2024-01-30T13:34:28;-18535.00;;;8.08;100.00
28606;BME280;46498;49.968;7.754;2024-01-30T13:39:29;-18533.00;;;8.03;100.00
28606;BME280;46498;49.968;7.754;2024-01-30T13:44:37;-18534.00;;;8.05;100.00
28606;BME280;46498;49.968;7.754;2024-01-30T13:49:38;-18537.00;;;8.14;100.00
28606;BME280;46498;49.968;7.754;2024-01-30T13:54:39;-18535.00;;;8.09;100.00
28606;BME280;46498;49.968;7.754;2024-01-30T13:59:40;-18537.00;;;8.14;100.00
28606;BME280;46498;49.968;7.754;2024-01-30T14:04:41;-18535.00;;;8.06;100.00
28606;BME280;46498;49.968;7.754;2024-01-30T14:09:42;-18536.00;;;8.11;100.00
28606;BME280;46498;49.968;7.754;2024-01-30T14:14:43;-18530.00;;;7.90;100.00
28606;BME280;46498;49.968;7.754;2024-01-30T14:19:44;-18527.00;;;7.82;100.00
28606;BME280;46498;49.968;7.754;2024-01-30T14:24:45;-18528.00;;;7.85;100.00
28606;BME280;46498;49.968;7.754;2024-01-30T14:29:46;-18529.00;;;7.89;100.00
28606;BME280;46498;49.968;7.754;2024-01-30T14:34:47;-18530.00;;;7.91;100.00
28606;BME280;46498;49.968;7.754;2024-01-30T14:39:48;-18526.00;;;7.80;100.00
28606;BME280;46498;49.968;7.754;2024-01-30T14:44:50;-18524.00;;;7.73;100.00
28606;BME280;46498;49.968;7.754;2024-01-30T14:49:51;-18525.00;;;7.77;100.00
28606;BME280;46498;49.968;7.754;2024-01-30T14:54:52;-18524.00;;;7.73;100.00
28606;BME280;46498;49.968;7.754;2024-01-30T14:59:53;-18524.00;;;7.73;100.00
28606;BME280;46498;49.968;7.754;2024-01-30T15:04:54;-18524.00;;;7.74;100.00
28606;BME280;46498;49.968;7.754;2024-01-30T15:09:55;-18523.00;;;7.69;100.00
28606;BME280;46498;49.968;7.754;2024-01-30T15:14:56;-18522.00;;;7.65;100.00
28606;BME280;46498;49.968;7.754;2024-01-30T15:19:59;-18522.00;;;7.66;100.00
28606;BME280;46498;49.968;7.754;2024-01-30T15:25:01;-18519.00;;;7.56;100.00
28606;BME280;46498;49.968;7.754;2024-01-30T15:30:02;-18517.00;;;7.52;100.00
28606;BME280;46498;49.968;7.754;2024-01-30T15:35:04;-18516.00;;;7.49;100.00
28606;BME280;46498;49.968;7.754;2024-01-30T15:40:07;-18524.00;;;7.74;100.00
28606;BME280;46498;49.968;7.754;2024-01-30T15:45:09;-18523.00;;;7.70;100.00
28606;BME280;46498;49.968;7.754;2024-01-30T15:50:13;-18522.00;;;7.65;100.00
28606;BME280;46498;49.968;7.754;2024-01-30T15:55:14;-18520.00;;;7.59;100.00
28606;BME280;46498;49.968;7.754;2024-01-30T16:00:16;-18523.00;;;7.69;100.00
28606;BME280;46498;49.968;7.754;2024-01-30T16:05:17;-18525.00;;;7.78;100.00
28606;BME280;46498;49.968;7.754;2024-01-30T16:10:18;-18531.00;;;7.95;100.00
28606;BME280;46498;49.968;7.754;2024-01-30T16:15:20;-18530.00;;;7.91;100.00
28606;BME280;46498;49.968;7.754;2024-01-30T16:20:21;-18525.00;;;7.78;100.00
28606;BME280;46498;49.968;7.754;2024-01-30T16:25:22;-18522.00;;;7.67;100.00
28606;BME280;46498;49.968;7.754;2024-01-30T16:30:23;-18520.00;;;7.61;100.00
28606;BME280;46498;49.968;7.754;2024-01-30T16:35:24;-18518.00;;;7.54;100.00
28606;BME280;46498;49.968;7.754;2024-01-30T16:40:47;-18516.00;;;7.48;100.00
28606;BME280;46498;49.968;7.754;2024-01-30T16:45:49;-18512.00;;;7.35;100.00
28606;BME280;46498;49.968;7.754;2024-01-30T16:50:52;-18512.00;;;7.34;100.00
28606;BME280;46498;49.968;7.754;2024-01-30T16:55:53;-18507.00;;;7.21;100.00
28606;BME280;46498;49.968;7.754;2024-01-30T17:00:54;-18509.00;;;7.26;100.00
28606;BME280;46498;49.968;7.754;2024-01-30T17:05:56;-18508.00;;;7.24;100.00
28606;BME280;46498;49.968;7.754;2024-01-30T17:11:05;-18508.00;;;7.24;100.00
28606;BME280;46498;49.968;7.754;2024-01-30T17:16:06;-18512.00;;;7.36;100.00
28606;BME280;46498;49.968;7.754;2024-01-30T17:21:07;-18512.00;;;7.36;100.00
28606;BME280;46498;49.968;7.754;2024-01-30T17:26:10;-18514.00;;;7.42;100.00
28606;BME280;46498;49.968;7.754;2024-01-30T17:31:12;-18517.00;;;7.50;100.00
28606;BME280;46498;49.968;7.754;2024-01-30T17:36:12;-18519.00;;;7.58;100.00
28606;BME280;46498;49.968;7.754;2024-01-30T17:41:14;-18517.00;;;7.52;100.00
28606;BME280;46498;49.968;7.754;2024-01-30T17:46:15;-18517.00;;;7.51;100.00
28606;BME280;46498;49.968;7.754;2024-01-30T17:51:16;-18518.00;;;7.55;100.00
28606;BME280;46498;49.968;7.754;2024-01-30T17:56:18;-18519.00;;;7.57;100.00
28606;BME280;46498;49.968;7.754;2024-01-30T18:01:19;-18517.00;;;7.51;100.00
28606;BME280;46498;49.968;7.754;2024-01-30T18:06:20;-18516.00;;;7.49;100.00
28606;BME280;46498;49.968;7.754;2024-01-30T18:11:21;-18518.00;;;7.53;100.00
28606;BME280;46498;49.968;7.754;2024-01-30T18:16:22;-18517.00;;;7.52;100.00
28606;BME280;46498;49.968;7.754;2024-01-30T18:21:26;-18522.00;;;7.65;100.00
28606;BME280;46498;49.968;7.754;2024-01-30T18:26:26;-18518.00;;;7.55;100.00
28606;BME280;46498;49.968;7.754;2024-01-30T18:31:27;-18521.00;;;7.64;100.00
28606;BME280;46498;49.968;7.754;2024-01-30T18:36:28;-18519.00;;;7.58;100.00
28606;BME280;46498;49.968;7.754;2024-01-30T18:41:29;-18517.00;;;7.50;100.00
28606;BME280;46498;49.968;7.754;2024-01-30T18:46:30;-18515.00;;;7.46;100.00
28606;BME280;46498;49.968;7.754;2024-01-30T18:51:31;-18518.00;;;7.53;100.00
28606;BME280;46498;49.968;7.754;2024-01-30T18:56:32;-18519.00;;;7.58;100.00
28606;BME280;46498;49.968;7.754;2024-01-30T19:01:33;-18518.00;;;7.53;100.00
28606;BME280;46498;49.968;7.754;2024-01-30T19:06:34;-18516.00;;;7.48;100.00
28606;BME280;46498;49.968;7.754;2024-01-30T19:11:35;-18520.00;;;7.61;100.00
28606;BME280;46498;49.968;7.754;2024-01-30T19:16:36;-18523.00;;;7.71;100.00
28606;BME280;46498;49.968;7.754;2024-01-30T19:21:37;-18524.00;;;7.73;100.00
28606;BME280;46498;49.968;7.754;2024-01-30T19:26:38;-18520.00;;;7.59;100.00
28606;BME280;46498;49.968;7.754;2024-01-30T19:31:39;-18520.00;;;7.60;100.00
28606;BME280;46498;49.968;7.754;2024-01-30T19:36:40;-18515.00;;;7.46;100.00
28606;BME280;46498;49.968;7.754;2024-01-30T19:41:41;-18514.00;;;7.42;100.00
28606;BME280;46498;49.968;7.754;2024-01-30T19:46:45;-18511.00;;;7.32;100.00
28606;BME280;46498;49.968;7.754;2024-01-30T19:51:46;-18511.00;;;7.32;100.00
28606;BME280;46498;49.968;7.754;2024-01-30T19:56:46;-18512.00;;;7.34;100.00
28606;BME280;46498;49.968;7.754;2024-01-30T20:01:48;-18513.00;;;7.37;100.00
28606;BME280;46498;49.968;7.754;2024-01-30T20:06:49;-18514.00;;;7.42;100.00
28606;BME280;46498;49.968;7.754;2024-01-30T20:11:50;-18513.00;;;7.39;100.00
28606;BME280;46498;49.968;7.754;2024-01-30T20:16:51;-18514.00;;;7.42;100.00
28606;BME280;46498;49.968;7.754;2024-01-30T20:21:52;-18510.00;;;7.29;100.00
28606;BME280;46498;49.968;7.754;2024-01-30T20:26:53;-18513.00;;;7.38;100.00
28606;BME280;46498;49.968;7.754;2024-01-30T20:31:54;-18512.00;;;7.35;100.00
28606;BME280;46498;49.968;7.754;2024-01-30T20:36:55;-18510.00;;;7.30;100.00
28606;BME280;46498;49.968;7.754;2024-01-30T20:41:56;-18512.00;;;7.34;100.00
28606;BME280;46498;49.968;7.754;2024-01-30T20:46:57;-18514.00;;;7.42;100.00
28606;BME280;46498;49.968;7.754;2024-01-30T20:51:58;-18513.00;;;7.38;100.00
28606;BME280;46498;49.968;7.754;2024-01-30T20:57:00;-18513.00;;;7.38;100.00
28606;BME280;46498;49.968;7.754;2024-01-30T21:02:01;-18523.00;;;7.70;100.00
28606;BME280;46498;49.968;7.754;2024-01-30T21:07:02;-18525.00;;;7.76;100.00
28606;BME280;46498;49.968;7.754;2024-01-30T21:12:04;-18520.00;;;7.60;100.00
28606;BME280;46498;49.968;7.754;2024-01-30T21:17:05;-18519.00;;;7.59;100.00
28606;BME280;46498;49.968;7.754;2024-01-30T21:22:07;-18518.00;;;7.55;100.00
28606;BME280;46498;49.968;7.754;2024-01-30T21:27:08;-18518.00;;;7.55;100.00
28606;BME280;46498;49.968;7.754;2024-01-30T21:32:10;-18518.00;;;7.54;100.00
28606;BME280;46498;49.968;7.754;2024-01-30T21:37:11;-18519.00;;;7.57;100.00
28606;BME280;46498;49.968;7.754;2024-01-30T21:42:13;-18517.00;;;7.52;100.00
28606;BME280;46498;49.968;7.754;2024-01-30T21:47:14;-18518.00;;;7.53;100.00
28606;BME280;46498;49.968;7.754;2024-01-30T21:52:16;-18516.00;;;7.49;100.00
28606;BME280;46498;49.968;7.754;2024-01-30T21:57:17;-18517.00;;;7.51;100.00
28606;BME280;46498;49.968;7.754;2024-01-30T22:02:18;-18517.00;;;7.51;100.00
28606;BME280;46498;49.968;7.754;2024-01-30T22:07:19;-18518.00;;;7.54;100.00
28606;BME280;46498;49.968;7.754;2024-01-30T22:12:20;-18519.00;;;7.58;100.00
28606;BME280;46498;49.968;7.754;2024-01-30T22:17:22;-18517.00;;;7.51;100.00
28606;BME280;46498;49.968;7.754;2024-01-30T22:22:24;-18515.00;;;7.45;100.00
28606;BME280;46498;49.968;7.754;2024-01-30T22:27:25;-18513.00;;;7.39;100.00
28606;BME280;46498;49.968;7.754;2024-01-30T22:32:26;-18514.00;;;7.43;100.00
28606;BME280;46498;49.968;7.754;2024-01-30T22:37:27;-18514.00;;;7.42;100.00
28606;BME280;46498;49.968;7.754;2024-01-30T22:42:28;-18512.00;;;7.35;100.00
28606;BME280;46498;49.968;7.754;2024-01-30T22:47:29;-18513.00;;;7.40;100.00
28606;BME280;46498;49.968;7.754;2024-01-30T22:52:30;-18510.00;;;7.30;100.00
28606;BME280;46498;49.968;7.754;2024-01-30T22:57:31;-18510.00;;;7.29;100.00
28606;BME280;46498;49.968;7.754;2024-01-30T23:02:33;-18510.00;;;7.30;100.00
28606;BME280;46498;49.968;7.754;2024-01-30T23:07:34;-18508.00;;;7.24;100.00
28606;BME280;46498;49.968;7.754;2024-01-30T23:12:42;-18513.00;;;7.40;100.00
28606;BME280;46498;49.968;7.754;2024-01-30T23:17:45;-18506.00;;;7.17;100.00
28606;BME280;46498;49.968;7.754;2024-01-30T23:22:49;-18501.00;;;7.00;100.00
28606;BME280;46498;49.968;7.754;2024-01-30T23:27:50;-18498.00;;;6.92;100.00
28606;BME280;46498;49.968;7.754;2024-01-30T23:32:50;-18493.00;;;6.77;100.00
28606;BME280;46498;49.968;7.754;2024-01-30T23:37:54;-18495.00;;;6.82;100.00
28606;BME280;46498;49.968;7.754;2024-01-30T23:42:55;-18491.00;;;6.69;100.00
28606;BME280;46498;49.968;7.754;2024-01-30T23:47:56;-18489.00;;;6.62;100.00
28606;BME280;46498;49.968;7.754;2024-01-30T23:52:57;-18487.00;;;6.56;100.00
28606;BME280;46498;49.968;7.754;2024-01-30T23:57:58;-18486.00;;;6.53;100.00
